Terminal Aerodrome Forecast
Issued by NWS

Home | Current Version | Previous Version | Text Only | Print | Product List | Glossary On
Versions: 1 2 3 4 5 6 7 8 9 10 11 12 13 14 15 16 17 18 19
000
FTUS44 KLZK 242100 AAA
TAFADF
TAF AMD
KADF 242140Z 2422/2518 22012G18KT 5SM BR VCTS BKN035CB OVC050
      TEMPO 2423/2502 3SM TSRA BR BKN020CB OVC040
     FM250400 27010G20KT P6SM VCSH BKN040 OVC080
     FM250600 27005KT P6SM SCT050 SCT100
      TEMPO 2509/2513 5SM BR=

USA.gov is the U.S. government's official web portal to all federal, state and local government web resources and services.